createdAt,value
2018-10-19T00:00:54.400Z,0.00
2018-10-19T00:01:54.385Z,0.00
2018-10-19T00:02:54.438Z,0.00
2018-10-19T00:03:54.365Z,0.00
2018-10-19T00:04:54.361Z,0.00
2018-10-19T00:05:54.346Z,0.00
2018-10-19T00:06:54.329Z,0.00
2018-10-19T00:07:54.335Z,0.00
2018-10-19T00:08:54.349Z,0.00
2018-10-19T00:09:54.296Z,0.00
2018-10-19T00:10:54.297Z,0.00
2018-10-19T00:11:54.274Z,0.00
2018-10-19T00:12:54.403Z,0.00
2018-10-19T00:13:54.254Z,0.00
2018-10-19T00:14:54.282Z,0.00
2018-10-19T00:15:54.262Z,0.00
2018-10-19T00:16:54.223Z,0.00
2018-10-19T00:17:54.215Z,0.00
2018-10-19T00:18:54.198Z,0.00
2018-10-19T00:19:54.184Z,0.00
2018-10-19T00:20:54.225Z,0.00
2018-10-19T00:21:54.160Z,0.00
2018-10-19T00:22:54.181Z,0.00
2018-10-19T00:23:54.137Z,0.00
2018-10-19T00:24:54.127Z,0.00
2018-10-19T00:25:54.117Z,0.00
2018-10-19T00:26:54.152Z,0.00
2018-10-19T00:27:54.101Z,0.00
2018-10-19T00:28:54.094Z,0.00
2018-10-19T00:29:54.085Z,0.00
2018-10-19T00:30:54.074Z,0.00
2018-10-19T00:31:54.049Z,0.00
2018-10-19T00:32:54.067Z,0.00
2018-10-19T00:33:54.023Z,0.00
2018-10-19T00:34:54.065Z,0.00
2018-10-19T00:35:54.003Z,0.00
2018-10-19T00:36:54.066Z,0.00
2018-10-19T00:37:53.990Z,0.00
2018-10-19T00:38:53.976Z,0.00
2018-10-19T00:39:53.960Z,0.00
2018-10-19T00:40:53.965Z,0.00
2018-10-19T00:41:53.933Z,0.00
2018-10-19T00:42:53.934Z,0.00
2018-10-19T00:43:53.922Z,0.00
2018-10-19T00:44:53.968Z,0.00
2018-10-19T00:45:53.897Z,0.00
2018-10-19T00:46:53.882Z,0.00
2018-10-19T00:47:53.867Z,0.00
2018-10-19T00:48:53.868Z,0.00
2018-10-19T00:49:53.846Z,0.00
2018-10-19T00:50:53.872Z,0.00
2018-10-19T00:54:10.264Z,0.00
2018-10-19T00:55:10.254Z,0.00
2018-10-19T00:56:10.236Z,0.00
2018-10-19T00:57:10.395Z,0.00
2018-10-19T00:58:10.209Z,0.00
2018-10-19T00:59:10.300Z,0.00
2018-10-19T01:00:10.190Z,0.00
2018-10-19T01:01:10.179Z,0.00
2018-10-19T01:02:10.173Z,0.00
2018-10-19T01:03:10.230Z,0.00
2018-10-19T01:04:10.199Z,0.00
2018-10-19T01:05:10.163Z,0.00
2018-10-19T01:07:21.091Z,0.00
2018-10-19T01:08:18.333Z,0.00
2018-10-19T01:09:18.334Z,0.00
2018-10-19T01:10:18.309Z,0.00
2018-10-19T01:11:18.299Z,0.00
2018-10-19T01:12:18.291Z,0.00
2018-10-19T01:13:18.276Z,0.00
2018-10-19T01:14:18.278Z,0.00
2018-10-19T01:15:18.284Z,0.00
2018-10-19T01:16:18.241Z,0.00
2018-10-19T01:17:18.242Z,0.00
2018-10-19T01:18:18.233Z,0.00
2018-10-19T01:20:47.410Z,0.00
2018-10-19T07:53:02.228Z,1644.00
2018-10-19T07:53:55.966Z,1716.00
2018-10-19T07:54:55.906Z,1748.00
2018-10-19T07:55:55.903Z,1764.00
2018-10-19T07:59:12.364Z,1768.00
2018-10-19T08:00:12.301Z,1784.00
2018-10-19T08:01:12.386Z,1792.00
2018-10-19T08:02:12.373Z,1804.00
2018-10-19T08:03:12.245Z,1804.00
2018-10-19T08:04:12.238Z,1840.00
2018-10-19T08:05:12.323Z,1828.00
2018-10-19T08:06:12.221Z,1812.00
2018-10-19T08:07:12.219Z,1768.00
2018-10-19T08:08:12.240Z,1740.00
2018-10-19T08:09:12.181Z,1732.00
2018-10-19T08:10:12.177Z,1740.00
2018-10-19T08:11:12.260Z,1788.00
2018-10-19T08:12:12.172Z,1780.00
2018-10-19T08:13:12.140Z,1732.00
2018-10-19T08:14:12.122Z,1692.00
2018-10-19T08:15:12.108Z,1688.00
2018-10-19T08:16:12.097Z,1732.00
2018-10-19T08:17:12.139Z,1884.00
2018-10-19T08:18:12.085Z,2016.00
2018-10-19T08:19:12.059Z,2164.00
2018-10-19T08:20:12.108Z,2108.00
2018-10-19T08:21:12.119Z,2040.00
2018-10-19T08:22:12.052Z,2152.00
2018-10-19T08:23:12.139Z,2264.00
2018-10-19T08:24:12.008Z,2220.00
2018-10-19T08:25:11.993Z,2068.00
2018-10-19T08:26:12.124Z,2012.00
2018-10-19T08:28:56.992Z,1868.00
2018-10-19T08:29:20.668Z,1896.00
2018-10-19T08:30:20.663Z,1932.00
2018-10-19T08:31:20.649Z,1996.00
2018-10-19T08:32:20.655Z,2056.00
2018-10-19T08:33:20.638Z,2116.00
2018-10-19T08:34:20.612Z,2160.00
2018-10-19T08:35:20.601Z,2232.00
2018-10-19T08:36:20.589Z,2320.00
2018-10-19T08:37:20.591Z,2320.00
2018-10-19T08:38:20.626Z,2336.00
2018-10-19T08:39:20.561Z,2416.00
2018-10-19T08:40:20.546Z,2636.00
2018-10-19T08:41:20.586Z,2996.00
2018-10-19T08:42:20.530Z,2876.00
2018-10-19T08:43:20.526Z,2648.00
2018-10-19T08:44:20.501Z,2780.00
2018-10-19T08:45:20.493Z,2972.00
2018-10-19T08:46:20.479Z,2808.00
2018-10-19T08:47:20.464Z,2444.00
2018-10-19T08:48:20.477Z,2308.00
2018-10-19T08:49:20.443Z,2316.00
2018-10-19T08:51:43.391Z,2332.00
2018-10-19T08:52:28.645Z,2344.00
2018-10-19T08:53:28.796Z,2376.00
2018-10-19T08:54:28.688Z,2428.00
2018-10-19T08:55:28.691Z,2436.00
2018-10-19T08:56:28.611Z,2428.00
2018-10-19T08:57:28.585Z,2476.00
2018-10-19T08:58:28.589Z,2560.00
2018-10-19T08:59:28.560Z,2740.00
2018-10-19T09:00:28.562Z,2744.00
2018-10-19T09:01:28.547Z,2840.00
2018-10-19T09:02:28.531Z,3068.00
2018-10-19T09:03:28.579Z,3108.00
2018-10-19T09:04:28.506Z,2964.00
2018-10-19T09:05:28.493Z,2880.00
2018-10-19T09:06:28.497Z,2908.00
2018-10-19T09:07:28.477Z,2804.00
2018-10-19T09:08:28.480Z,2940.00
2018-10-19T09:09:28.453Z,3344.00
2018-10-19T09:10:28.438Z,3428.00
2018-10-19T09:11:28.545Z,3544.00
2018-10-19T09:12:28.466Z,3396.00
2018-10-19T09:13:28.404Z,3048.00
2018-10-19T09:14:28.401Z,3052.00
2018-10-19T09:15:28.384Z,3132.00
2018-10-19T09:16:28.370Z,3076.00
2018-10-19T09:17:28.366Z,2880.00
2018-10-19T09:18:28.366Z,2924.00
2018-10-19T09:19:28.352Z,3052.00
2018-10-19T09:20:28.323Z,3056.00
2018-10-19T09:21:28.324Z,3216.00
2018-10-19T09:22:28.310Z,3500.00
2018-10-19T09:23:28.298Z,3536.00
2018-10-19T09:24:28.296Z,3256.00
2018-10-19T09:25:28.268Z,3272.00
2018-10-19T09:26:28.256Z,3244.00
2018-10-19T09:27:28.250Z,3588.00
2018-10-19T09:28:28.238Z,4372.00
2018-10-19T09:29:28.307Z,4904.00
2018-10-19T09:30:28.217Z,4716.00
2018-10-19T09:31:28.200Z,4208.00
2018-10-19T09:32:28.188Z,3380.00
2018-10-19T09:33:28.179Z,3224.00
2018-10-19T09:34:28.177Z,3160.00
2018-10-19T09:35:28.224Z,3052.00
2018-10-19T09:36:28.410Z,2924.00
2018-10-19T09:37:28.134Z,2880.00
2018-10-19T09:38:28.121Z,2896.00
2018-10-19T09:39:28.122Z,2944.00
2018-10-19T09:40:28.112Z,2912.00
2018-10-19T09:41:28.099Z,2932.00
2018-10-19T09:42:28.078Z,3032.00
2018-10-19T09:43:28.069Z,3096.00
2018-10-19T09:44:28.074Z,3052.00
2018-10-19T09:45:28.045Z,2996.00
2018-10-19T09:46:28.037Z,2964.00
2018-10-19T09:47:28.076Z,3000.00
2018-10-19T09:48:28.059Z,3044.00
2018-10-19T09:49:28.007Z,2996.00
2018-10-19T09:50:27.983Z,2968.00
2018-10-19T09:51:27.987Z,2980.00
2018-10-19T09:52:27.960Z,3032.00
2018-10-19T09:53:27.950Z,3076.00
2018-10-19T09:54:27.939Z,3204.00
2018-10-19T09:55:27.939Z,3212.00
2018-10-19T09:56:27.921Z,3172.00
2018-10-19T09:57:27.918Z,3036.00
2018-10-19T09:58:27.907Z,2988.00
2018-10-19T09:59:27.880Z,2972.00
2018-10-19T10:00:27.878Z,2972.00
2018-10-19T10:01:27.856Z,3000.00
2018-10-19T10:02:27.868Z,3000.00
2018-10-19T10:03:27.847Z,3016.00
2018-10-19T10:04:27.822Z,3016.00
2018-10-19T10:05:27.823Z,3012.00
2018-10-19T10:06:27.800Z,3052.00
2018-10-19T10:07:27.790Z,3108.00
2018-10-19T10:08:27.776Z,3196.00
2018-10-19T10:09:27.765Z,3228.00
2018-10-19T10:10:27.795Z,3380.00
2018-10-19T10:11:27.753Z,3516.00
2018-10-19T10:12:27.733Z,3600.00
2018-10-19T10:13:27.727Z,3560.00
2018-10-19T10:14:27.719Z,3880.00
2018-10-19T10:17:45.114Z,5868.00
2018-10-19T10:18:45.094Z,6036.00
2018-10-19T10:19:45.084Z,5784.00
2018-10-19T10:20:45.082Z,5280.00
2018-10-19T10:21:45.063Z,5288.00
2018-10-19T10:22:45.049Z,5264.00
2018-10-19T10:23:45.037Z,4428.00
2018-10-19T10:24:45.111Z,3744.00
2018-10-19T10:25:45.026Z,3704.00
2018-10-19T10:26:45.011Z,3728.00
2018-10-19T10:27:44.999Z,3768.00
2018-10-19T10:28:44.987Z,4608.00
2018-10-19T10:29:44.971Z,4832.00
2018-10-19T10:30:44.974Z,4500.00
2018-10-19T10:31:44.951Z,6208.00
2018-10-19T10:32:44.969Z,6108.00
2018-10-19T10:33:44.930Z,6540.00
2018-10-19T10:34:44.918Z,5748.00
2018-10-19T10:35:44.929Z,4580.00
2018-10-19T10:36:44.908Z,5848.00
2018-10-19T10:37:44.897Z,5528.00
2018-10-19T10:38:44.939Z,3688.00
2018-10-19T10:39:44.871Z,3288.00
2018-10-19T10:40:44.867Z,3292.00
2018-10-19T10:41:44.838Z,3296.00
2018-10-19T10:42:44.830Z,3324.00
2018-10-19T10:43:44.819Z,3344.00
2018-10-19T10:44:44.833Z,3572.00
2018-10-19T10:45:44.810Z,3552.00
2018-10-19T10:46:44.782Z,3532.00
2018-10-19T10:47:44.774Z,3476.00
2018-10-19T10:48:44.761Z,3408.00
2018-10-19T10:49:44.752Z,3332.00
2018-10-19T10:50:44.750Z,3336.00
2018-10-19T10:51:44.726Z,3416.00
2018-10-19T10:52:44.716Z,4112.00
2018-10-19T10:53:44.706Z,3472.00
2018-10-19T10:54:44.693Z,3384.00
2018-10-19T10:55:44.697Z,3392.00
2018-10-19T10:56:44.683Z,3392.00
2018-10-19T10:57:44.660Z,3400.00
2018-10-19T10:58:44.649Z,3408.00
2018-10-19T10:59:44.643Z,3432.00
2018-10-19T11:00:44.669Z,3672.00
2018-10-19T11:01:44.616Z,3564.00
2018-10-19T11:02:44.605Z,3640.00
2018-10-19T11:03:44.593Z,3512.00
2018-10-19T11:04:44.583Z,3488.00
2018-10-19T11:05:44.570Z,3480.00
2018-10-19T11:06:44.576Z,3492.00
2018-10-19T11:07:44.669Z,3504.00
2018-10-19T11:08:44.562Z,3724.00
2018-10-19T11:09:44.529Z,3724.00
2018-10-19T11:10:44.519Z,3564.00
2018-10-19T11:11:44.518Z,3516.00
2018-10-19T11:12:44.497Z,3512.00
2018-10-19T11:13:44.483Z,3504.00
2018-10-19T11:14:44.471Z,3448.00
2018-10-19T11:15:44.461Z,3408.00
2018-10-19T11:16:44.461Z,3380.00
2018-10-19T11:17:44.439Z,3400.00
2018-10-19T11:18:44.431Z,3364.00
2018-10-19T11:19:44.418Z,3372.00
2018-10-19T11:20:44.405Z,3392.00
2018-10-19T11:21:44.418Z,3436.00
2018-10-19T11:22:44.381Z,3424.00
2018-10-19T11:23:44.394Z,3440.00
2018-10-19T11:24:44.363Z,3456.00
2018-10-19T11:25:44.354Z,3416.00
2018-10-19T11:26:44.355Z,3596.00
2018-10-19T11:27:44.326Z,4000.00
2018-10-19T11:28:44.317Z,3504.00
2018-10-19T11:29:44.309Z,3416.00
2018-10-19T11:30:44.433Z,3464.00
2018-10-19T11:31:44.312Z,3536.00
2018-10-19T11:32:44.273Z,3588.00
2018-10-19T11:33:44.260Z,3556.00
2018-10-19T11:34:44.250Z,3452.00
2018-10-19T11:35:44.240Z,3808.00
2018-10-19T11:36:44.247Z,4360.00
2018-10-19T11:37:44.259Z,4380.00
2018-10-19T11:38:44.205Z,4520.00
2018-10-19T11:39:44.194Z,3512.00
2018-10-19T11:40:44.183Z,3428.00
2018-10-19T11:41:44.197Z,3388.00
2018-10-19T11:42:44.162Z,3392.00
2018-10-19T11:43:44.149Z,3392.00
2018-10-19T11:44:44.139Z,3284.00
2018-10-19T11:45:44.130Z,3204.00
2018-10-19T11:46:44.129Z,3200.00
2018-10-19T11:47:44.106Z,3236.00
2018-10-19T11:48:44.115Z,3272.00
2018-10-19T11:49:44.094Z,3356.00
2018-10-19T11:50:44.073Z,3336.00
2018-10-19T11:51:44.094Z,3336.00
2018-10-19T11:52:44.050Z,3336.00
2018-10-19T11:53:44.040Z,3336.00
2018-10-19T11:54:44.060Z,3340.00
2018-10-19T11:55:44.017Z,3288.00
2018-10-19T11:56:44.023Z,3380.00
2018-10-19T11:57:43.999Z,3252.00
2018-10-19T11:58:43.985Z,3256.00
2018-10-19T11:59:43.977Z,3252.00
2018-10-19T12:00:43.963Z,3256.00
2018-10-19T12:01:43.951Z,3284.00
2018-10-19T12:02:43.953Z,3312.00
2018-10-19T12:03:44.000Z,3300.00
2018-10-19T12:04:43.921Z,3312.00
2018-10-19T12:05:43.905Z,3288.00
2018-10-19T12:06:43.895Z,3320.00
2018-10-19T12:07:43.894Z,3364.00
2018-10-19T12:08:43.879Z,3328.00
2018-10-19T12:09:43.867Z,3308.00
2018-10-19T12:10:43.929Z,3292.00
2018-10-19T12:11:43.840Z,3272.00
2018-10-19T12:12:43.841Z,3268.00
2018-10-19T12:13:43.819Z,3228.00
2018-10-19T12:14:43.806Z,3208.00
2018-10-19T12:15:43.827Z,3300.00
2018-10-19T12:16:43.953Z,3240.00
2018-10-19T12:17:43.783Z,3160.00
2018-10-19T12:18:43.761Z,3128.00
2018-10-19T12:19:43.750Z,3124.00
2018-10-19T12:20:43.814Z,3028.00
2018-10-19T12:21:43.736Z,3084.00
2018-10-19T12:22:43.728Z,3232.00
2018-10-19T12:23:43.714Z,3204.00
2018-10-19T12:24:43.697Z,3124.00
2018-10-19T12:25:43.685Z,3152.00
2018-10-19T12:26:43.678Z,3120.00
2018-10-19T12:27:43.694Z,3172.00
2018-10-19T12:28:43.651Z,3328.00
2018-10-19T12:29:43.644Z,3208.00
2018-10-19T12:30:43.644Z,3364.00
2018-10-19T12:31:43.622Z,3808.00
2018-10-19T12:32:43.624Z,4224.00
2018-10-19T12:33:43.619Z,4524.00
2018-10-19T12:34:43.593Z,4264.00
2018-10-19T12:35:43.574Z,4588.00
2018-10-19T12:36:43.564Z,4380.00
2018-10-19T12:37:43.570Z,4024.00
2018-10-19T12:38:43.543Z,3868.00
2018-10-19T12:39:43.544Z,3352.00
2018-10-19T12:40:43.528Z,3120.00
2018-10-19T12:41:43.510Z,3060.00
2018-10-19T12:42:43.509Z,3012.00
2018-10-19T12:43:43.498Z,2936.00
2018-10-19T12:44:43.475Z,2976.00
2018-10-19T12:45:43.477Z,2984.00
2018-10-19T12:46:43.454Z,3000.00
2018-10-19T12:47:43.474Z,2980.00
2018-10-19T12:48:43.430Z,2952.00
2018-10-19T12:49:43.421Z,2964.00
2018-10-19T12:50:43.410Z,3024.00
2018-10-19T12:51:43.397Z,3072.00
2018-10-19T12:52:43.396Z,3144.00
2018-10-19T12:53:43.432Z,3160.00
2018-10-19T12:54:43.364Z,3180.00
2018-10-19T12:55:43.365Z,3124.00
2018-10-19T12:56:43.352Z,3088.00
2018-10-19T12:57:43.357Z,3124.00
2018-10-19T12:58:43.320Z,3152.00
2018-10-19T12:59:43.309Z,3132.00
2018-10-19T13:00:43.299Z,3080.00
2018-10-19T13:01:43.297Z,3012.00
2018-10-19T13:02:43.294Z,3068.00
2018-10-19T13:03:43.342Z,3208.00
2018-10-19T13:04:43.254Z,3224.00
2018-10-19T13:05:43.245Z,3172.00
2018-10-19T13:06:43.235Z,3284.00
2018-10-19T13:07:43.237Z,3340.00
2018-10-19T13:08:43.223Z,3312.00
2018-10-19T13:09:43.200Z,3216.00
2018-10-19T13:10:43.189Z,3200.00
2018-10-19T13:11:43.179Z,3160.00
2018-10-19T13:12:43.179Z,3132.00
2018-10-19T13:13:43.157Z,3184.00
2018-10-19T13:14:43.170Z,3188.00
2018-10-19T13:15:43.140Z,3236.00
2018-10-19T13:16:43.124Z,3272.00
2018-10-19T13:17:43.126Z,3308.00
2018-10-19T13:20:12.816Z,3376.00
2018-10-19T13:20:51.803Z,3392.00
2018-10-19T13:21:51.793Z,3344.00
2018-10-19T13:22:51.790Z,3340.00
2018-10-19T13:23:51.769Z,3260.00
2018-10-19T13:24:51.756Z,3260.00
2018-10-19T13:25:51.747Z,3256.00
2018-10-19T13:26:51.739Z,3296.00
2018-10-19T13:27:51.734Z,3216.00
2018-10-19T13:28:51.711Z,3192.00
2018-10-19T13:29:51.703Z,3168.00
2018-10-19T13:30:51.690Z,3140.00
2018-10-19T13:31:51.679Z,3100.00
2018-10-19T13:32:51.682Z,3056.00
2018-10-19T13:33:51.667Z,3024.00
2018-10-19T13:34:51.650Z,3012.00
2018-10-19T13:35:51.635Z,2996.00
2018-10-19T13:36:51.639Z,2960.00
2018-10-19T13:37:51.629Z,3080.00
2018-10-19T13:38:51.610Z,2956.00
2018-10-19T13:39:51.596Z,2816.00
2018-10-19T13:40:51.581Z,2848.00
2018-10-19T13:41:51.571Z,2692.00
2018-10-19T13:42:51.586Z,2632.00
2018-10-19T13:43:51.551Z,2604.00
2018-10-19T13:44:51.557Z,2588.00
2018-10-19T13:45:51.539Z,2624.00
2018-10-19T13:46:51.517Z,2612.00
2018-10-19T13:47:51.506Z,2644.00
2018-10-19T13:48:51.509Z,2672.00
2018-10-19T13:49:51.488Z,2688.00
2018-10-19T13:50:51.471Z,2720.00
2018-10-19T13:51:51.461Z,2756.00
2018-10-19T13:52:51.450Z,2760.00
2018-10-19T13:53:51.450Z,2760.00
2018-10-19T13:54:51.426Z,2752.00
2018-10-19T13:55:51.418Z,2692.00
2018-10-19T13:56:51.407Z,2664.00
2018-10-19T13:57:51.396Z,2652.00
2018-10-19T13:58:51.394Z,2628.00
2018-10-19T13:59:51.374Z,2616.00
2018-10-19T14:00:51.361Z,2540.00
2018-10-19T14:01:51.353Z,2452.00
2018-10-19T14:02:51.348Z,2368.00
2018-10-19T14:03:51.343Z,2308.00
2018-10-19T14:04:51.356Z,2236.00
2018-10-19T14:05:51.309Z,2136.00
2018-10-19T14:06:51.295Z,1992.00
2018-10-19T14:07:51.290Z,1876.00
2018-10-19T14:08:51.285Z,1808.00
2018-10-19T14:09:51.262Z,1736.00
2018-10-19T14:10:51.252Z,1640.00
2018-10-19T14:11:51.244Z,1612.00
2018-10-19T14:12:51.230Z,1584.00
2018-10-19T14:13:51.239Z,1564.00
2018-10-19T14:14:51.207Z,1548.00
2018-10-19T14:15:51.194Z,1556.00
2018-10-19T14:16:51.185Z,1540.00
2018-10-19T14:17:51.175Z,1520.00
2018-10-19T14:18:51.179Z,1500.00
2018-10-19T14:19:51.151Z,1516.00
2018-10-19T14:20:51.145Z,1476.00
2018-10-19T14:21:51.128Z,1464.00
2018-10-19T14:22:51.116Z,1492.00
2018-10-19T14:23:51.105Z,1472.00
2018-10-19T14:24:51.112Z,1472.00
2018-10-19T14:25:51.102Z,1452.00
2018-10-19T14:26:51.173Z,1424.00
2018-10-19T14:27:51.062Z,1388.00
2018-10-19T14:28:51.064Z,1384.00
2018-10-19T14:29:51.057Z,1388.00
2018-10-19T14:30:51.027Z,1404.00
2018-10-19T14:31:51.020Z,1396.00
2018-10-19T14:32:51.076Z,1380.00
2018-10-19T14:33:50.996Z,1364.00
2018-10-19T14:34:50.997Z,1376.00
2018-10-19T14:35:50.983Z,1392.00
2018-10-19T14:36:50.961Z,1416.00
2018-10-19T14:37:50.951Z,1448.00
2018-10-19T14:38:50.939Z,1508.00
2018-10-19T14:39:50.938Z,1508.00
2018-10-19T14:40:50.920Z,1540.00
2018-10-19T14:41:50.976Z,1604.00
2018-10-19T14:42:50.901Z,1648.00
2018-10-19T14:43:50.882Z,1612.00
2018-10-19T14:44:50.892Z,1532.00
2018-10-19T14:45:50.862Z,1504.00
2018-10-19T14:46:50.865Z,1512.00
2018-10-19T14:47:50.838Z,1444.00
2018-10-19T14:48:50.887Z,1404.00
2018-10-19T14:49:50.829Z,1388.00
2018-10-19T14:52:35.788Z,1296.00
2018-10-19T14:52:59.580Z,1236.00
2018-10-19T14:53:59.508Z,1192.00
2018-10-19T14:54:59.514Z,1148.00
2018-10-19T14:55:59.490Z,1132.00
2018-10-19T14:56:59.490Z,1092.00
2018-10-19T14:57:59.464Z,1068.00
2018-10-19T14:58:59.510Z,1052.00
2018-10-19T14:59:59.467Z,1024.00
2018-10-19T15:00:59.430Z,996.00
2018-10-19T15:01:59.419Z,972.00
2018-10-19T15:04:11.377Z,928.00
2018-10-19T15:05:08.134Z,908.00
2018-10-19T15:06:08.108Z,896.00
2018-10-19T15:07:08.098Z,888.00
2018-10-19T15:08:08.085Z,876.00
2018-10-19T15:09:08.080Z,872.00
2018-10-19T15:10:08.189Z,860.00
2018-10-19T15:11:08.205Z,840.00
2018-10-19T15:12:08.141Z,820.00
2018-10-19T15:13:08.027Z,820.00
2018-10-19T15:14:08.014Z,800.00
2018-10-19T15:15:08.094Z,776.00
2018-10-19T15:16:07.993Z,768.00
2018-10-19T15:17:07.982Z,760.00
2018-10-19T15:18:08.090Z,760.00
2018-10-19T15:19:07.959Z,748.00
2018-10-19T15:20:07.960Z,728.00
2018-10-19T15:21:08.090Z,712.00
2018-10-19T15:22:07.926Z,696.00
2018-10-19T15:23:07.926Z,688.00
2018-10-19T15:24:07.924Z,672.00
2018-10-19T15:25:07.913Z,672.00
2018-10-19T15:26:07.878Z,644.00
2018-10-19T15:27:07.981Z,632.00
2018-10-19T15:28:07.866Z,428.00
2018-10-19T15:29:07.983Z,600.00
2018-10-19T15:30:07.896Z,584.00
2018-10-19T15:31:07.824Z,580.00
2018-10-19T15:32:07.812Z,572.00
2018-10-19T15:33:07.838Z,560.00
2018-10-19T15:34:07.790Z,548.00
2018-10-19T15:35:07.824Z,532.00
2018-10-19T15:36:07.786Z,520.00
2018-10-19T15:37:07.755Z,500.00
2018-10-19T15:38:07.755Z,488.00
2018-10-19T15:39:07.794Z,480.00
2018-10-19T15:40:07.725Z,464.00
2018-10-19T15:41:07.727Z,460.00
2018-10-19T15:42:07.737Z,448.00
2018-10-19T15:43:07.685Z,440.00
2018-10-19T15:44:07.675Z,428.00
2018-10-19T15:45:07.710Z,416.00
2018-10-19T15:46:07.664Z,408.00
2018-10-19T15:47:07.641Z,396.00
2018-10-19T15:48:07.719Z,384.00
2018-10-19T15:49:07.619Z,368.00
2018-10-19T15:50:07.612Z,360.00
2018-10-19T15:51:07.620Z,348.00
2018-10-19T15:52:07.585Z,340.00
2018-10-19T15:53:07.606Z,332.00
2018-10-19T15:54:07.632Z,320.00
2018-10-19T15:55:07.550Z,312.00
2018-10-19T15:56:07.559Z,304.00
2018-10-19T15:57:07.544Z,288.00
2018-10-19T15:58:07.518Z,276.00
2018-10-19T15:59:07.505Z,268.00
2018-10-19T16:01:16.216Z,248.00
2018-10-19T16:02:16.199Z,240.00
2018-10-19T16:05:33.885Z,208.00
2018-10-19T16:06:33.875Z,204.00
2018-10-19T16:07:33.857Z,196.00
2018-10-19T16:08:33.844Z,184.00
2018-10-19T16:09:33.833Z,180.00
2018-10-19T16:10:33.828Z,168.00
2018-10-19T16:11:33.820Z,160.00
2018-10-19T16:12:33.799Z,148.00
2018-10-19T16:13:33.788Z,144.00
2018-10-19T16:14:33.778Z,136.00
2018-10-19T16:15:33.764Z,128.00
2018-10-19T16:16:33.768Z,120.00
2018-10-19T16:17:33.795Z,112.00
2018-10-19T16:18:33.730Z,108.00
2018-10-19T16:19:33.727Z,100.00
2018-10-19T16:20:33.731Z,96.00
2018-10-19T16:21:33.714Z,88.00
2018-10-19T16:22:33.688Z,80.00
2018-10-19T16:23:33.677Z,80.00
2018-10-19T16:24:33.665Z,72.00
2018-10-19T16:25:33.659Z,64.00
2018-10-19T16:26:33.655Z,60.00
2018-10-19T16:27:33.663Z,56.00
2018-10-19T16:28:33.767Z,48.00
2018-10-19T16:29:33.606Z,44.00
2018-10-19T16:30:33.595Z,40.00
2018-10-19T16:31:33.590Z,36.00
2018-10-19T16:32:33.584Z,32.00
2018-10-19T16:33:33.561Z,28.00
2018-10-19T16:34:33.593Z,24.00
2018-10-19T16:35:33.539Z,24.00
2018-10-19T16:36:33.528Z,20.00
2018-10-19T16:37:33.527Z,16.00
2018-10-19T16:38:33.507Z,16.00
2018-10-19T16:39:33.493Z,16.00
2018-10-19T16:40:33.482Z,12.00
2018-10-19T16:41:33.471Z,8.00
2018-10-19T16:42:33.476Z,8.00
2018-10-19T16:43:33.470Z,8.00
2018-10-19T16:44:33.462Z,4.00
2018-10-19T16:45:33.428Z,4.00
2018-10-19T16:46:33.417Z,8.00
2018-10-19T16:47:33.417Z,4.00
2018-10-19T16:48:33.394Z,4.00
2018-10-19T16:49:33.388Z,0.00
2018-10-19T16:50:33.372Z,4.00
2018-10-19T16:51:33.365Z,0.00
2018-10-19T16:52:33.431Z,0.00
2018-10-19T16:53:33.359Z,4.00
2018-10-19T16:54:33.327Z,0.00
2018-10-19T16:55:33.333Z,0.00
2018-10-19T16:56:33.318Z,0.00
2018-10-19T16:57:33.316Z,0.00
2018-10-19T16:58:33.281Z,0.00
2018-10-19T16:59:33.269Z,0.00
2018-10-19T17:00:33.257Z,0.00
2018-10-19T17:01:33.244Z,0.00
2018-10-19T17:04:02.935Z,0.00
